SBKP/CPQ METAR and TAF weather

Enter ICAO airport designator
Station Type Date Time Source
SBKP METAR 2019/02/21 16:00 UTC NOAA

SBKP 211600Z 01009KT 340V040 9999 SCT033 FEW040TCU BKN080 27/20 Q1017


Station Type Date Time Source
SBKP Decoded METAR 2019/02/21 16:00 UTC NOAA

Campinas Aeroporto , Brazil (SBKP) 23-00S 047-08W 661M
Feb 21, 2019 - 11:00 AM EST / 2019.02.21 1600 UTC
Wind: from the N (010 degrees) at 10 MPH (9 KT) (direction variable):0
Visibility: greater than 7 mile(s):0
Sky conditions: mostly cloudy
Weather: Towering cumulus clouds observed
Temperature: 80 F (27 C)
Dew Point: 68 F (20 C)
Relative Humidity: 65%
Pressure (altimeter): 30.03 in. Hg (1017 hPa)
ob: SBKP 211600Z 01009KT 340V040 9999 SCT033 FEW040TCU BKN080 27/20 Q1017
cycle: 16

Station Type Date Time Source
SBKP TAF 2019/02/21 12:30 UTC NOAA

TAF TAF SBKP 211015Z 2112/2212 15008KT 8000 SCT035TX28/2118Z TN20/2209Z
BECMG 2113/2115 04010KT 9999 PROB40 2115/2121 33010KT 6000 TSRA BKN030 FEW045CB
BECMG 2122/2124 15007KT
BECMG 2204/2206 10005KT CAVOK
RMK PGN


Example: see airport list